createdAt,value
2018-10-19T00:01:08.019Z,29.27
2018-10-19T00:03:39.582Z,26.57
2018-10-19T00:06:11.998Z,26.30
2018-10-19T00:08:44.119Z,27.60
2018-10-19T00:11:16.741Z,29.07
2018-10-19T00:13:48.519Z,28.10
2018-10-19T00:16:20.158Z,27.90
2018-10-19T00:18:52.626Z,26.93
2018-10-19T00:21:24.739Z,26.20
2018-10-19T00:23:56.421Z,26.17
2018-10-19T00:26:27.940Z,23.83
2018-10-19T00:28:59.892Z,26.87
2018-10-19T00:31:31.800Z,25.87
2018-10-19T00:34:04.459Z,27.30
2018-10-19T00:36:36.710Z,27.32
2018-10-19T00:39:11.211Z,24.77
2018-10-19T00:41:43.203Z,29.15
2018-10-19T00:44:15.679Z,26.45
2018-10-19T00:46:47.959Z,25.72
2018-10-19T00:49:20.099Z,24.85
2018-10-19T00:51:52.161Z,24.50
2018-10-19T00:54:23.480Z,25.12
2018-10-19T00:56:55.470Z,25.17
2018-10-19T00:59:27.119Z,24.50
2018-10-19T01:01:59.119Z,25.43
2018-10-19T01:04:31.459Z,25.33
2018-10-19T01:07:03.499Z,23.23
2018-10-19T01:09:35.222Z,24.33
2018-10-19T01:12:07.078Z,24.60
2018-10-19T01:14:38.239Z,25.57
2018-10-19T01:17:10.708Z,26.97
2018-10-19T01:19:41.899Z,27.37
2018-10-19T01:22:14.298Z,26.17
2018-10-19T01:24:45.438Z,27.50
2018-10-19T01:27:17.313Z,25.37
2018-10-19T01:29:49.259Z,25.00
2018-10-19T01:32:21.519Z,26.68
2018-10-19T01:34:53.179Z,26.80
2018-10-19T01:37:25.179Z,27.37
2018-10-19T01:39:57.039Z,27.50
2018-10-19T01:42:29.479Z,23.98
2018-10-19T01:45:01.285Z,25.75
2018-10-19T01:47:33.719Z,28.40
2018-10-19T01:50:05.579Z,27.10
2018-10-19T01:52:37.598Z,28.50
2018-10-19T01:55:09.841Z,27.82
2018-10-19T01:57:41.899Z,28.62
2018-10-19T02:00:13.838Z,28.62
2018-10-19T02:02:46.418Z,27.80
2018-10-19T02:05:18.219Z,28.75
2018-10-19T02:07:50.678Z,28.60
2018-10-19T02:10:22.878Z,28.23
2018-10-19T02:12:55.558Z,28.85
2018-10-19T02:15:28.780Z,28.27
2018-10-19T02:18:00.338Z,29.75
2018-10-19T02:20:33.677Z,29.60
2018-10-19T02:23:06.085Z,29.90
2018-10-19T02:25:38.078Z,30.90
2018-10-19T02:28:10.039Z,29.45
2018-10-19T02:30:42.860Z,30.15
2018-10-19T02:33:14.515Z,30.30
2018-10-19T02:35:47.321Z,28.30
2018-10-19T02:38:19.340Z,29.10
2018-10-19T02:40:51.480Z,29.40
2018-10-19T02:43:23.179Z,30.00
2018-10-19T02:45:54.839Z,29.85
2018-10-19T02:48:26.539Z,29.18
2018-10-19T02:50:58.460Z,29.50
2018-10-19T02:53:30.359Z,29.20
2018-10-19T02:56:03.338Z,28.83
2018-10-19T02:58:35.319Z,30.65
2018-10-19T03:01:07.219Z,29.80
2018-10-19T03:03:38.938Z,31.05
2018-10-19T03:06:11.560Z,31.80
2018-10-19T03:08:43.221Z,29.52
2018-10-19T03:11:16.004Z,34.27
2018-10-19T03:13:47.621Z,38.55
2018-10-19T03:16:19.999Z,34.38
2018-10-19T03:18:51.320Z,32.70
2018-10-19T03:21:23.224Z,34.53
2018-10-19T03:23:55.959Z,32.55
2018-10-19T03:26:27.399Z,32.42
2018-10-19T03:28:58.811Z,32.50
2018-10-19T03:31:30.348Z,32.80
2018-10-19T03:34:01.919Z,30.90
2018-10-19T03:36:33.479Z,32.20
2018-10-19T03:39:05.958Z,32.42
2018-10-19T03:41:37.959Z,31.52
2018-10-19T03:44:09.958Z,29.18
2018-10-19T03:46:42.065Z,30.30
2018-10-19T03:49:14.732Z,29.40
2018-10-19T03:51:47.399Z,36.70
2018-10-19T03:54:19.041Z,29.65
2018-10-19T03:56:51.118Z,30.72
2018-10-19T03:59:22.939Z,32.10
2018-10-19T04:01:54.658Z,32.03
2018-10-19T04:04:26.978Z,29.87
2018-10-19T04:06:59.019Z,31.20
2018-10-19T04:09:31.101Z,30.72
2018-10-19T04:12:03.761Z,29.32
2018-10-19T04:14:36.147Z,30.80
2018-10-19T04:17:08.572Z,33.92
2018-10-19T04:19:40.001Z,31.37
2018-10-19T04:22:12.199Z,35.28
2018-10-19T04:24:43.979Z,31.80
2018-10-19T04:27:15.828Z,34.43
2018-10-19T04:29:47.666Z,33.83
2018-10-19T04:32:19.439Z,32.48
2018-10-19T04:34:51.130Z,31.50
2018-10-19T04:37:24.319Z,32.33
2018-10-19T04:39:56.659Z,33.58
2018-10-19T04:42:28.184Z,34.23
2018-10-19T04:45:01.068Z,33.20
2018-10-19T04:47:33.103Z,32.35
2018-10-19T04:50:05.259Z,33.35
2018-10-19T04:52:36.899Z,33.60
2018-10-19T04:55:11.399Z,35.30
2018-10-19T04:57:42.742Z,33.70
2018-10-19T05:00:15.599Z,35.33
2018-10-19T05:02:47.845Z,35.70
2018-10-19T05:05:19.833Z,33.85
2018-10-19T05:07:51.352Z,35.65
2018-10-19T05:10:23.719Z,38.13
2018-10-19T05:12:56.144Z,36.17
2018-10-19T05:15:28.079Z,37.42
2018-10-19T05:18:02.239Z,38.23
2018-10-19T05:20:33.598Z,38.35
2018-10-19T05:23:05.645Z,39.13
2018-10-19T05:25:37.759Z,43.45
2018-10-19T05:28:10.699Z,40.70
2018-10-19T05:30:42.180Z,43.58
2018-10-19T05:33:14.699Z,40.33
2018-10-19T05:35:45.959Z,39.65
2018-10-19T05:38:18.700Z,41.05
2018-10-19T05:40:50.639Z,41.23
2018-10-19T05:43:22.936Z,41.08
2018-10-19T05:45:54.898Z,44.25
2018-10-19T05:48:26.859Z,41.00
2018-10-19T05:50:58.899Z,41.70
2018-10-19T05:53:31.338Z,42.90
2018-10-19T05:56:03.364Z,41.28
2018-10-19T05:58:36.559Z,43.55
2018-10-19T06:01:07.919Z,40.85
2018-10-19T06:03:41.579Z,41.92
2018-10-19T06:06:13.520Z,36.90
2018-10-19T06:08:45.579Z,33.20
2018-10-19T06:11:17.443Z,32.70
2018-10-19T06:13:49.318Z,39.67
2018-10-19T06:16:21.780Z,40.15
2018-10-19T06:18:53.900Z,42.45
2018-10-19T06:21:25.920Z,38.02
2018-10-19T06:23:57.963Z,37.75
2018-10-19T06:26:29.964Z,38.20
2018-10-19T06:29:02.375Z,41.77
2018-10-19T06:31:34.718Z,39.73
2018-10-19T06:34:05.979Z,39.03
2018-10-19T06:36:38.858Z,41.10
2018-10-19T06:39:12.779Z,39.70
2018-10-19T06:41:44.819Z,39.80
2018-10-19T06:44:16.735Z,36.70
2018-10-19T06:46:48.745Z,36.98
2018-10-19T06:49:20.600Z,35.68
2018-10-19T06:51:53.240Z,37.95
2018-10-19T06:54:25.819Z,39.23
2018-10-19T06:56:57.519Z,37.58
2018-10-19T06:59:30.190Z,36.28
2018-10-19T07:02:01.640Z,37.40
2018-10-19T07:04:33.077Z,36.40
2018-10-19T07:07:04.459Z,35.00
2018-10-19T07:09:37.118Z,33.73
2018-10-19T07:12:10.063Z,43.28
2018-10-19T07:14:41.779Z,35.68
2018-10-19T07:17:13.665Z,33.98
2018-10-19T07:19:45.419Z,36.55
2018-10-19T07:22:17.135Z,37.50
2018-10-19T07:24:48.394Z,35.98
2018-10-19T07:27:20.014Z,35.35
2018-10-19T07:29:52.014Z,34.03
2018-10-19T07:32:23.793Z,35.52
2018-10-19T07:34:56.448Z,38.02
2018-10-19T07:37:28.654Z,38.30
2018-10-19T07:39:59.995Z,36.25
2018-10-19T07:42:32.046Z,36.48
2018-10-19T07:45:03.196Z,38.17
2018-10-19T07:47:35.116Z,39.42
2018-10-19T07:50:07.045Z,44.85
2018-10-19T07:52:40.169Z,36.25
2018-10-19T07:55:13.713Z,35.40
2018-10-19T07:57:44.553Z,38.33
2018-10-19T08:00:16.055Z,37.85
2018-10-19T08:02:48.673Z,37.30
2018-10-19T08:05:20.694Z,37.60
2018-10-19T08:07:52.581Z,41.28
2018-10-19T08:10:24.213Z,39.48
2018-10-19T08:12:56.853Z,40.92
2018-10-19T08:15:28.673Z,41.60
2018-10-19T08:18:00.133Z,44.50
2018-10-19T08:20:32.293Z,42.17
2018-10-19T08:23:04.146Z,46.18
2018-10-19T08:25:35.793Z,45.33
2018-10-19T08:28:07.476Z,42.10
2018-10-19T08:30:39.714Z,43.97
2018-10-19T08:33:11.273Z,44.07
2018-10-19T08:35:43.053Z,45.43
2018-10-19T08:38:14.978Z,44.07
2018-10-19T08:40:46.773Z,44.73
2018-10-19T08:43:18.951Z,41.27
2018-10-19T08:45:50.816Z,46.00
2018-10-19T08:48:22.653Z,44.67
2018-10-19T08:50:54.277Z,41.00
2018-10-19T08:53:26.108Z,41.93
2018-10-19T08:55:57.272Z,45.30
2018-10-19T08:58:29.334Z,44.17
2018-10-19T09:01:01.333Z,45.27
2018-10-19T09:03:33.302Z,42.67
2018-10-19T09:06:05.315Z,43.40
2018-10-19T09:08:36.767Z,44.47
2018-10-19T09:11:09.158Z,41.37
2018-10-19T09:13:41.148Z,41.73
2018-10-19T09:16:13.583Z,41.87
2018-10-19T09:18:45.616Z,42.80
2018-10-19T09:21:17.276Z,42.90
2018-10-19T09:23:49.720Z,47.20
2018-10-19T09:26:21.558Z,42.77
2018-10-19T09:28:53.511Z,42.97
2018-10-19T09:31:24.991Z,44.93
2018-10-19T09:33:56.916Z,47.87
2018-10-19T09:36:28.452Z,59.27
2018-10-19T09:38:59.862Z,44.03
2018-10-19T09:41:31.111Z,41.77
2018-10-19T09:44:02.433Z,45.23
2018-10-19T09:46:35.091Z,43.63
2018-10-19T09:49:06.784Z,41.77
2018-10-19T09:51:39.735Z,46.17
2018-10-19T09:54:11.976Z,45.20
2018-10-19T09:56:43.815Z,45.90
2018-10-19T09:59:15.342Z,46.00
2018-10-19T10:01:47.901Z,44.23
2018-10-19T10:04:19.962Z,45.77
2018-10-19T10:06:51.750Z,42.83
2018-10-19T10:09:23.792Z,44.53
2018-10-19T10:11:56.167Z,46.13
2018-10-19T10:14:28.163Z,44.07
2018-10-19T10:16:59.839Z,46.10
2018-10-19T10:19:32.303Z,42.70
2018-10-19T10:22:03.154Z,46.10
2018-10-19T10:24:35.375Z,46.83
2018-10-19T10:27:06.887Z,46.10
2018-10-19T10:29:38.310Z,45.27
2018-10-19T10:32:09.440Z,46.37
2018-10-19T10:34:42.658Z,44.07
2018-10-19T10:37:14.644Z,45.87
2018-10-19T10:39:46.673Z,46.37
2018-10-19T10:42:18.615Z,46.40
2018-10-19T10:44:51.213Z,47.20
2018-10-19T10:47:22.253Z,47.90
2018-10-19T10:49:54.613Z,45.30
2018-10-19T10:52:26.276Z,45.40
2018-10-19T10:54:58.033Z,44.97
2018-10-19T10:57:30.083Z,45.03
2018-10-19T11:00:02.186Z,45.07
2018-10-19T11:02:33.769Z,45.00
2018-10-19T11:05:05.890Z,45.67
2018-10-19T11:07:38.272Z,46.17
2018-10-19T11:10:10.459Z,45.27
2018-10-19T11:12:41.919Z,45.77
2018-10-19T11:15:14.261Z,41.77
2018-10-19T11:17:45.577Z,43.53
2018-10-19T11:20:18.876Z,43.60
2018-10-19T11:22:50.910Z,46.63
2018-10-19T11:25:23.771Z,45.10
2018-10-19T11:27:56.682Z,45.77
2018-10-19T11:30:29.407Z,54.67
2018-10-19T11:33:01.590Z,46.33
2018-10-19T11:35:33.890Z,46.27
2018-10-19T11:38:05.917Z,45.40
2018-10-19T11:40:38.511Z,48.50
2018-10-19T11:43:10.386Z,44.13
2018-10-19T11:45:41.291Z,49.67
2018-10-19T11:48:13.610Z,45.80
2018-10-19T11:50:45.251Z,44.53
2018-10-19T11:53:17.970Z,46.73
2018-10-19T11:55:50.373Z,44.30
2018-10-19T11:58:22.551Z,47.70
2018-10-19T12:00:54.571Z,46.93
2018-10-19T12:03:26.365Z,45.10
2018-10-19T12:05:58.330Z,46.73
2018-10-19T12:08:30.450Z,48.73
2018-10-19T12:11:01.630Z,50.00
2018-10-19T12:13:34.049Z,46.00
2018-10-19T12:16:05.833Z,46.30
2018-10-19T12:18:38.230Z,51.40
2018-10-19T12:21:10.502Z,49.10
2018-10-19T12:23:42.750Z,48.07
2018-10-19T12:26:14.331Z,46.80
2018-10-19T12:28:46.231Z,48.60
2018-10-19T12:31:17.913Z,48.00
2018-10-19T12:33:49.943Z,46.87
2018-10-19T12:36:21.070Z,48.40
2018-10-19T12:38:53.690Z,43.33
2018-10-19T12:41:24.898Z,45.77
2018-10-19T12:43:57.057Z,40.67
2018-10-19T12:46:40.317Z,42.67
2018-10-19T12:49:12.915Z,47.10
2018-10-19T12:51:45.257Z,47.63
2018-10-19T12:54:17.173Z,49.50
2018-10-19T12:56:49.618Z,46.00
2018-10-19T12:59:21.117Z,46.67
2018-10-19T13:01:53.257Z,45.70
2018-10-19T13:04:25.437Z,50.97
2018-10-19T13:06:57.417Z,49.13
2018-10-19T13:09:29.198Z,48.20
2018-10-19T13:12:00.997Z,46.50
2018-10-19T13:14:32.638Z,46.40
2018-10-19T13:17:03.845Z,47.60
2018-10-19T13:19:36.177Z,46.73
2018-10-19T13:22:06.870Z,48.27
2018-10-19T13:24:39.234Z,50.03
2018-10-19T13:27:11.278Z,46.70
2018-10-19T13:29:43.754Z,49.60
2018-10-19T13:32:15.155Z,48.53
2018-10-19T13:34:47.376Z,50.33
2018-10-19T13:37:19.193Z,52.80
2018-10-19T13:39:51.134Z,50.50
2018-10-19T13:42:22.284Z,49.90
2018-10-19T13:44:54.533Z,48.40
2018-10-19T13:47:26.145Z,48.27
2018-10-19T13:49:57.845Z,50.77
2018-10-19T13:52:29.493Z,47.17
2018-10-19T13:55:01.053Z,52.60
2018-10-19T13:57:32.883Z,51.73
2018-10-19T14:00:04.825Z,51.20
2018-10-19T14:02:37.165Z,47.50
2018-10-19T14:05:09.661Z,52.23
2018-10-19T14:07:41.624Z,50.50
2018-10-19T14:10:13.264Z,50.17
2018-10-19T14:12:45.243Z,50.53
2018-10-19T14:15:16.570Z,49.67
2018-10-19T14:17:48.545Z,51.30
2018-10-19T14:20:20.243Z,51.77
2018-10-19T14:22:52.441Z,49.80
2018-10-19T14:25:24.001Z,50.53
2018-10-19T14:27:56.046Z,51.17
2018-10-19T14:30:27.741Z,51.10
2018-10-19T14:32:59.920Z,52.57
2018-10-19T14:35:31.826Z,48.87
2018-10-19T14:38:04.182Z,52.20
2018-10-19T14:40:36.361Z,52.03
2018-10-19T14:43:08.151Z,51.00
2018-10-19T14:45:40.232Z,50.77
2018-10-19T14:48:11.969Z,54.17
2018-10-19T14:50:44.111Z,51.00
2018-10-19T14:53:15.924Z,53.03
2018-10-19T14:55:47.250Z,53.30
2018-10-19T14:58:18.808Z,52.63
2018-10-19T15:00:52.113Z,51.10
2018-10-19T15:03:23.310Z,53.07
2018-10-19T15:05:55.209Z,54.83
2018-10-19T15:08:26.971Z,54.00
2018-10-19T15:11:00.015Z,51.97
2018-10-19T15:13:32.089Z,57.17
2018-10-19T15:16:03.869Z,52.77
2018-10-19T15:18:35.692Z,55.27
2018-10-19T15:21:08.133Z,52.10
2018-10-19T15:23:40.210Z,52.80
2018-10-19T15:26:12.469Z,53.43
2018-10-19T15:28:44.308Z,54.33
2018-10-19T15:31:16.190Z,55.30
2018-10-19T15:33:48.730Z,53.00
2018-10-19T15:36:20.582Z,53.13
2018-10-19T15:38:52.952Z,53.13
2018-10-19T15:41:26.530Z,54.97
2018-10-19T15:43:58.109Z,54.87
2018-10-19T15:46:31.321Z,52.30
2018-10-19T15:49:02.450Z,53.53
2018-10-19T15:51:34.450Z,54.10
2018-10-19T15:54:07.728Z,50.57
2018-10-19T15:56:40.652Z,50.67
2018-10-19T15:59:13.950Z,52.47
2018-10-19T16:01:45.010Z,52.23
2018-10-19T16:04:16.908Z,50.80
2018-10-19T16:06:49.248Z,55.50
2018-10-19T16:09:20.689Z,54.00
2018-10-19T16:11:53.375Z,52.73
2018-10-19T16:14:25.855Z,50.30
2018-10-19T16:16:58.168Z,50.07
2018-10-19T16:19:30.228Z,51.83
2018-10-19T16:22:02.430Z,52.50
2018-10-19T16:24:35.050Z,51.43
2018-10-19T16:27:07.184Z,52.50
2018-10-19T16:29:38.068Z,52.57
2018-10-19T16:32:09.569Z,53.87
2018-10-19T16:34:41.717Z,54.20
2018-10-19T16:37:13.069Z,56.20
2018-10-19T16:39:46.289Z,51.90
2018-10-19T16:42:18.320Z,51.90
2018-10-19T16:44:50.869Z,51.43
2018-10-19T16:47:22.268Z,52.20
2018-10-19T16:49:54.070Z,52.70
2018-10-19T16:52:26.476Z,50.67
2018-10-19T16:54:58.367Z,50.43
2018-10-19T16:57:30.933Z,50.90
2018-10-19T17:00:02.799Z,51.70
2018-10-19T17:02:35.407Z,50.87
2018-10-19T17:05:08.966Z,51.00
2018-10-19T17:07:41.506Z,53.17
2018-10-19T17:10:13.328Z,53.03
2018-10-19T17:12:44.749Z,53.70
2018-10-19T17:15:18.056Z,52.80
2018-10-19T17:17:51.087Z,53.43
2018-10-19T17:20:22.867Z,54.47
2018-10-19T17:22:54.107Z,54.43
2018-10-19T17:25:26.778Z,53.73
2018-10-19T17:27:59.069Z,56.50
2018-10-19T17:30:31.725Z,52.50
2018-10-19T17:33:04.578Z,53.87
2018-10-19T17:35:36.627Z,53.13
2018-10-19T17:38:08.949Z,54.90
2018-10-19T17:40:40.726Z,53.50
2018-10-19T17:43:12.182Z,54.60
2018-10-19T17:45:43.867Z,53.73
2018-10-19T17:48:15.723Z,53.60
2018-10-19T17:50:48.207Z,53.77
2018-10-19T17:53:20.051Z,54.93
2018-10-19T17:55:52.368Z,53.67
2018-10-19T17:58:23.947Z,54.93
2018-10-19T18:00:56.409Z,57.40
2018-10-19T18:03:28.674Z,53.37
2018-10-19T18:06:01.117Z,53.83
2018-10-19T18:08:33.407Z,53.53
2018-10-19T18:11:04.717Z,53.00
2018-10-19T18:13:36.595Z,53.43
2018-10-19T18:16:08.640Z,54.57
2018-10-19T18:18:40.899Z,55.07
2018-10-19T18:21:15.682Z,54.67
2018-10-19T18:23:47.394Z,54.00
2018-10-19T18:26:19.237Z,53.87
2018-10-19T18:28:50.676Z,53.47
2018-10-19T18:31:22.316Z,54.47
2018-10-19T18:33:54.398Z,52.87
2018-10-19T18:36:26.496Z,52.17
2018-10-19T18:38:57.897Z,52.10
2018-10-19T18:41:30.298Z,51.60
2018-10-19T18:44:02.593Z,54.20
2018-10-19T18:46:33.579Z,53.93
2018-10-19T18:49:05.656Z,53.70
2018-10-19T18:51:38.315Z,54.77
2018-10-19T18:54:11.255Z,53.60
2018-10-19T18:56:44.175Z,53.40
2018-10-19T18:59:15.550Z,54.43
2018-10-19T19:01:47.515Z,54.87
2018-10-19T19:04:18.895Z,54.57
2018-10-19T19:06:50.716Z,54.90
2018-10-19T19:09:23.356Z,54.43
2018-10-19T19:11:55.856Z,57.67
2018-10-19T19:14:27.247Z,56.37
2018-10-19T19:17:00.750Z,60.10
2018-10-19T19:19:32.987Z,57.17
2018-10-19T19:22:05.061Z,57.40
2018-10-19T19:24:41.410Z,58.00
2018-10-19T19:27:14.330Z,56.63
2018-10-19T19:29:45.869Z,55.73
2018-10-19T19:32:17.632Z,56.37
2018-10-19T19:34:49.010Z,55.50
2018-10-19T19:37:22.069Z,56.80
2018-10-19T19:39:53.470Z,55.67
2018-10-19T19:42:29.594Z,57.07
2018-10-19T19:45:01.870Z,56.97
2018-10-19T19:47:37.929Z,58.87
2018-10-19T19:50:09.351Z,57.27
2018-10-19T19:52:41.110Z,61.60
2018-10-19T19:55:14.110Z,61.47
2018-10-19T19:57:46.766Z,61.03
2018-10-19T20:00:19.145Z,60.37
2018-10-19T20:02:51.247Z,59.70
2018-10-19T20:05:23.226Z,176.70
2018-10-19T20:07:54.884Z,87.47
2018-10-19T20:10:27.726Z,57.37
2018-10-19T20:12:59.426Z,60.17
2018-10-19T20:15:31.786Z,58.03
2018-10-19T20:18:03.833Z,61.10
2018-10-19T20:20:35.706Z,57.60
2018-10-19T20:23:07.611Z,57.03
2018-10-19T20:25:39.987Z,57.80
2018-10-19T20:28:12.126Z,59.03
2018-10-19T20:30:44.306Z,56.67
2018-10-19T20:33:16.056Z,57.40
2018-10-19T20:35:49.226Z,58.27
2018-10-19T20:38:21.047Z,56.23
2018-10-19T20:40:53.701Z,60.67
2018-10-19T20:43:25.748Z,55.70
2018-10-19T20:45:57.867Z,54.47
2018-10-19T20:48:30.487Z,57.90
2018-10-19T20:51:01.486Z,55.53
2018-10-19T20:53:33.226Z,58.97
2018-10-19T20:56:05.153Z,55.87
2018-10-19T20:58:37.368Z,56.23
2018-10-19T21:01:09.726Z,55.40
2018-10-19T21:03:41.287Z,55.80
2018-10-19T21:06:14.306Z,56.27
2018-10-19T21:08:45.486Z,56.60
2018-10-19T21:11:17.698Z,57.23
2018-10-19T21:13:49.186Z,54.90
2018-10-19T21:16:21.006Z,55.50
2018-10-19T21:18:53.403Z,55.47
2018-10-19T21:21:25.626Z,54.27
2018-10-19T21:23:57.587Z,56.73
2018-10-19T21:26:29.206Z,56.20
2018-10-19T21:29:01.224Z,56.67
2018-10-19T21:31:33.467Z,55.97
2018-10-19T21:34:05.486Z,57.87
2018-10-19T21:36:38.226Z,56.37
2018-10-19T21:39:11.846Z,56.37
2018-10-19T21:41:43.185Z,56.83
2018-10-19T21:44:15.897Z,55.37
2018-10-19T21:46:48.405Z,59.73
2018-10-19T21:49:20.089Z,57.63
2018-10-19T21:51:52.268Z,57.03
2018-10-19T21:54:24.108Z,57.10
2018-10-19T21:56:56.426Z,54.57
2018-10-19T21:59:28.247Z,56.47
2018-10-19T22:02:00.415Z,54.03
2018-10-19T22:04:32.607Z,57.03
2018-10-19T22:07:04.227Z,52.60
2018-10-19T22:09:36.306Z,53.73
2018-10-19T22:12:08.145Z,52.87
2018-10-19T22:14:40.371Z,51.23
2018-10-19T22:17:12.539Z,51.30
2018-10-19T22:19:44.087Z,53.83
2018-10-19T22:22:16.145Z,53.47
2018-10-19T22:24:48.486Z,52.27
2018-10-19T22:27:20.226Z,52.80
2018-10-19T22:29:51.266Z,53.03
2018-10-19T22:32:22.505Z,52.70
2018-10-19T22:34:54.652Z,50.37
2018-10-19T22:37:28.006Z,51.93
2018-10-19T22:39:59.245Z,59.60
2018-10-19T22:42:31.865Z,51.97
2018-10-19T22:45:04.367Z,50.80
2018-10-19T22:47:36.805Z,52.70
2018-10-19T22:50:09.106Z,49.93
2018-10-19T22:52:41.827Z,50.90
2018-10-19T22:55:12.790Z,51.80
2018-10-19T22:57:45.485Z,51.67
2018-10-19T23:00:17.486Z,51.33
2018-10-19T23:02:50.647Z,52.13
2018-10-19T23:05:23.246Z,49.87
2018-10-19T23:07:55.406Z,52.57
2018-10-19T23:10:26.225Z,50.90
2018-10-19T23:12:58.391Z,52.33
2018-10-19T23:15:30.185Z,52.60
2018-10-19T23:18:02.088Z,51.90
2018-10-19T23:20:33.605Z,52.27
2018-10-19T23:23:05.352Z,54.67
2018-10-19T23:25:37.646Z,53.50
2018-10-19T23:28:09.265Z,52.17
2018-10-19T23:30:42.076Z,56.23
2018-10-19T23:33:14.386Z,53.00
2018-10-19T23:35:46.285Z,54.77
2018-10-19T23:38:19.266Z,55.63
2018-10-19T23:40:51.625Z,55.53
2018-10-19T23:43:23.706Z,50.77
2018-10-19T23:45:55.205Z,51.37
2018-10-19T23:48:27.665Z,51.80
2018-10-19T23:50:59.685Z,52.97
2018-10-19T23:53:31.425Z,55.50
2018-10-19T23:56:03.045Z,55.30
2018-10-19T23:58:34.746Z,50.90
